sensor_id;sensor_type;location;lat;lon;timestamp;P1;durP1;ratioP1;P2;durP2;ratioP2
16288;SDS011;26089;43.538;5.250;2023-05-27T00:02:00;10.43;;;7.70;;
16288;SDS011;26089;43.538;5.250;2023-05-27T00:04:27;13.53;;;8.40;;
16288;SDS011;26089;43.538;5.250;2023-05-27T00:06:54;8.80;;;7.50;;
16288;SDS011;26089;43.538;5.250;2023-05-27T00:09:22;9.47;;;8.03;;
16288;SDS011;26089;43.538;5.250;2023-05-27T00:11:49;13.47;;;8.03;;
16288;SDS011;26089;43.538;5.250;2023-05-27T00:14:16;11.43;;;8.00;;
16288;SDS011;26089;43.538;5.250;2023-05-27T00:16:45;8.33;;;7.27;;
16288;SDS011;26089;43.538;5.250;2023-05-27T00:19:12;12.80;;;8.03;;
16288;SDS011;26089;43.538;5.250;2023-05-27T00:21:39;14.23;;;8.20;;
16288;SDS011;26089;43.538;5.250;2023-05-27T00:24:07;11.43;;;7.83;;
16288;SDS011;26089;43.538;5.250;2023-05-27T00:26:35;12.27;;;8.00;;
16288;SDS011;26089;43.538;5.250;2023-05-27T00:29:04;12.67;;;8.07;;
16288;SDS011;26089;43.538;5.250;2023-05-27T00:31:31;11.13;;;8.03;;
16288;SDS011;26089;43.538;5.250;2023-05-27T00:33:57;9.40;;;7.50;;
16288;SDS011;26089;43.538;5.250;2023-05-27T00:36:24;10.60;;;7.97;;
16288;SDS011;26089;43.538;5.250;2023-05-27T00:38:51;13.83;;;7.93;;
16288;SDS011;26089;43.538;5.250;2023-05-27T00:41:18;12.23;;;8.20;;
16288;SDS011;26089;43.538;5.250;2023-05-27T00:43:47;10.90;;;8.07;;
16288;SDS011;26089;43.538;5.250;2023-05-27T00:46:14;11.40;;;8.00;;
16288;SDS011;26089;43.538;5.250;2023-05-27T00:48:41;10.77;;;7.80;;
16288;SDS011;26089;43.538;5.250;2023-05-27T00:51:08;13.43;;;7.73;;
16288;SDS011;26089;43.538;5.250;2023-05-27T00:53:37;12.47;;;7.80;;
16288;SDS011;26089;43.538;5.250;2023-05-27T00:56:07;11.47;;;8.50;;
16288;SDS011;26089;43.538;5.250;2023-05-27T00:58:34;13.37;;;8.90;;
16288;SDS011;26089;43.538;5.250;2023-05-27T01:01:03;14.50;;;9.50;;
16288;SDS011;26089;43.538;5.250;2023-05-27T01:03:32;12.17;;;8.73;;
16288;SDS011;26089;43.538;5.250;2023-05-27T01:06:02;12.77;;;8.27;;
16288;SDS011;26089;43.538;5.250;2023-05-27T01:08:36;11.73;;;8.57;;
16288;SDS011;26089;43.538;5.250;2023-05-27T01:11:07;13.30;;;9.13;;
16288;SDS011;26089;43.538;5.250;2023-05-27T01:13:38;13.00;;;8.60;;
16288;SDS011;26089;43.538;5.250;2023-05-27T01:16:10;18.90;;;9.07;;
16288;SDS011;26089;43.538;5.250;2023-05-27T01:18:39;12.47;;;9.33;;
16288;SDS011;26089;43.538;5.250;2023-05-27T01:21:10;13.57;;;8.80;;
16288;SDS011;26089;43.538;5.250;2023-05-27T01:23:42;11.70;;;8.20;;
16288;SDS011;26089;43.538;5.250;2023-05-27T01:26:09;14.20;;;8.60;;
16288;SDS011;26089;43.538;5.250;2023-05-27T01:28:36;12.33;;;8.93;;
16288;SDS011;26089;43.538;5.250;2023-05-27T01:31:06;12.07;;;9.07;;
16288;SDS011;26089;43.538;5.250;2023-05-27T01:33:38;14.50;;;8.73;;
16288;SDS011;26089;43.538;5.250;2023-05-27T01:36:13;12.93;;;9.03;;
16288;SDS011;26089;43.538;5.250;2023-05-27T01:38:44;15.43;;;8.87;;
16288;SDS011;26089;43.538;5.250;2023-05-27T01:41:12;11.90;;;8.10;;
16288;SDS011;26089;43.538;5.250;2023-05-27T01:43:41;10.83;;;8.87;;
16288;SDS011;26089;43.538;5.250;2023-05-27T01:46:09;13.00;;;9.77;;
16288;SDS011;26089;43.538;5.250;2023-05-27T01:48:36;13.20;;;8.50;;
16288;SDS011;26089;43.538;5.250;2023-05-27T01:51:03;12.90;;;8.93;;
16288;SDS011;26089;43.538;5.250;2023-05-27T01:53:30;12.77;;;8.93;;
16288;SDS011;26089;43.538;5.250;2023-05-27T01:55:58;13.97;;;9.67;;
16288;SDS011;26089;43.538;5.250;2023-05-27T01:58:25;14.27;;;8.90;;
16288;SDS011;26089;43.538;5.250;2023-05-27T02:00:52;12.53;;;9.70;;
16288;SDS011;26089;43.538;5.250;2023-05-27T02:03:19;13.93;;;9.97;;
16288;SDS011;26089;43.538;5.250;2023-05-27T02:05:46;15.93;;;10.10;;
16288;SDS011;26089;43.538;5.250;2023-05-27T02:08:13;15.90;;;9.90;;
16288;SDS011;26089;43.538;5.250;2023-05-27T02:10:40;13.20;;;9.17;;
16288;SDS011;26089;43.538;5.250;2023-05-27T02:13:08;11.73;;;9.67;;
16288;SDS011;26089;43.538;5.250;2023-05-27T02:15:35;15.87;;;9.60;;
16288;SDS011;26089;43.538;5.250;2023-05-27T02:18:03;11.50;;;8.17;;
16288;SDS011;26089;43.538;5.250;2023-05-27T02:20:31;15.83;;;9.57;;
16288;SDS011;26089;43.538;5.250;2023-05-27T02:22:58;16.20;;;8.43;;
16288;SDS011;26089;43.538;5.250;2023-05-27T02:25:26;13.07;;;9.40;;
16288;SDS011;26089;43.538;5.250;2023-05-27T02:27:53;16.23;;;10.13;;
16288;SDS011;26089;43.538;5.250;2023-05-27T02:30:22;14.93;;;9.00;;
16288;SDS011;26089;43.538;5.250;2023-05-27T02:32:49;14.27;;;9.20;;
16288;SDS011;26089;43.538;5.250;2023-05-27T02:35:16;13.23;;;9.17;;
16288;SDS011;26089;43.538;5.250;2023-05-27T02:37:43;17.23;;;10.37;;
16288;SDS011;26089;43.538;5.250;2023-05-27T02:40:10;15.30;;;9.70;;
16288;SDS011;26089;43.538;5.250;2023-05-27T02:42:38;13.37;;;9.87;;
16288;SDS011;26089;43.538;5.250;2023-05-27T02:45:05;11.60;;;9.07;;
16288;SDS011;26089;43.538;5.250;2023-05-27T02:47:34;11.57;;;8.83;;
16288;SDS011;26089;43.538;5.250;2023-05-27T02:50:01;13.73;;;9.30;;
16288;SDS011;26089;43.538;5.250;2023-05-27T02:52:28;10.97;;;9.67;;
16288;SDS011;26089;43.538;5.250;2023-05-27T02:54:55;12.27;;;9.50;;
16288;SDS011;26089;43.538;5.250;2023-05-27T02:57:22;12.30;;;9.57;;
16288;SDS011;26089;43.538;5.250;2023-05-27T02:59:49;13.53;;;8.77;;
16288;SDS011;26089;43.538;5.250;2023-05-27T03:02:16;11.83;;;9.20;;
16288;SDS011;26089;43.538;5.250;2023-05-27T03:04:44;14.57;;;9.70;;
16288;SDS011;26089;43.538;5.250;2023-05-27T03:07:12;14.30;;;9.80;;
16288;SDS011;26089;43.538;5.250;2023-05-27T03:09:39;14.33;;;8.97;;
16288;SDS011;26089;43.538;5.250;2023-05-27T03:12:06;12.60;;;9.13;;
16288;SDS011;26089;43.538;5.250;2023-05-27T03:14:34;13.70;;;8.93;;
16288;SDS011;26089;43.538;5.250;2023-05-27T03:17:01;13.77;;;8.97;;
16288;SDS011;26089;43.538;5.250;2023-05-27T03:19:28;14.40;;;8.70;;
16288;SDS011;26089;43.538;5.250;2023-05-27T03:21:56;12.50;;;9.13;;
16288;SDS011;26089;43.538;5.250;2023-05-27T03:24:23;15.00;;;8.77;;
16288;SDS011;26089;43.538;5.250;2023-05-27T03:26:50;12.03;;;9.03;;
16288;SDS011;26089;43.538;5.250;2023-05-27T03:29:17;13.50;;;8.57;;
16288;SDS011;26089;43.538;5.250;2023-05-27T03:31:44;9.73;;;7.90;;
16288;SDS011;26089;43.538;5.250;2023-05-27T03:34:11;12.93;;;8.90;;
16288;SDS011;26089;43.538;5.250;2023-05-27T03:36:38;14.90;;;9.77;;
16288;SDS011;26089;43.538;5.250;2023-05-27T03:39:06;8.90;;;7.93;;
16288;SDS011;26089;43.538;5.250;2023-05-27T03:41:33;15.13;;;8.23;;
16288;SDS011;26089;43.538;5.250;2023-05-27T03:44:00;12.83;;;8.50;;
16288;SDS011;26089;43.538;5.250;2023-05-27T03:46:27;11.67;;;8.80;;
16288;SDS011;26089;43.538;5.250;2023-05-27T03:48:54;13.87;;;8.57;;
16288;SDS011;26089;43.538;5.250;2023-05-27T03:51:21;11.13;;;8.00;;
16288;SDS011;26089;43.538;5.250;2023-05-27T03:53:48;11.87;;;8.60;;
16288;SDS011;26089;43.538;5.250;2023-05-27T03:56:17;9.47;;;8.57;;
16288;SDS011;26089;43.538;5.250;2023-05-27T03:58:44;13.20;;;8.80;;
16288;SDS011;26089;43.538;5.250;2023-05-27T04:01:11;15.53;;;9.23;;
16288;SDS011;26089;43.538;5.250;2023-05-27T04:03:38;10.57;;;8.03;;
16288;SDS011;26089;43.538;5.250;2023-05-27T04:06:06;12.27;;;8.50;;
16288;SDS011;26089;43.538;5.250;2023-05-27T04:08:33;13.83;;;9.30;;
16288;SDS011;26089;43.538;5.250;2023-05-27T04:11:00;12.43;;;8.90;;
16288;SDS011;26089;43.538;5.250;2023-05-27T04:13:30;14.27;;;8.80;;
16288;SDS011;26089;43.538;5.250;2023-05-27T04:15:56;13.70;;;8.80;;
16288;SDS011;26089;43.538;5.250;2023-05-27T04:18:24;12.47;;;8.10;;
16288;SDS011;26089;43.538;5.250;2023-05-27T04:20:51;9.87;;;7.27;;
16288;SDS011;26089;43.538;5.250;2023-05-27T04:23:18;10.77;;;7.47;;
16288;SDS011;26089;43.538;5.250;2023-05-27T04:25:45;11.70;;;8.13;;
16288;SDS011;26089;43.538;5.250;2023-05-27T04:28:13;12.03;;;8.00;;
16288;SDS011;26089;43.538;5.250;2023-05-27T04:30:43;10.20;;;7.37;;
16288;SDS011;26089;43.538;5.250;2023-05-27T04:33:11;11.33;;;7.50;;
16288;SDS011;26089;43.538;5.250;2023-05-27T04:35:38;10.07;;;7.70;;
16288;SDS011;26089;43.538;5.250;2023-05-27T04:38:09;10.90;;;7.70;;
16288;SDS011;26089;43.538;5.250;2023-05-27T04:40:41;11.03;;;8.70;;
16288;SDS011;26089;43.538;5.250;2023-05-27T04:43:10;9.43;;;7.67;;
16288;SDS011;26089;43.538;5.250;2023-05-27T04:45:39;14.10;;;7.83;;
16288;SDS011;26089;43.538;5.250;2023-05-27T04:48:08;13.67;;;8.20;;
16288;SDS011;26089;43.538;5.250;2023-05-27T04:50:36;11.10;;;7.50;;
16288;SDS011;26089;43.538;5.250;2023-05-27T04:53:02;9.50;;;7.03;;
16288;SDS011;26089;43.538;5.250;2023-05-27T04:55:29;8.37;;;7.40;;
16288;SDS011;26089;43.538;5.250;2023-05-27T04:57:57;10.43;;;7.30;;
16288;SDS011;26089;43.538;5.250;2023-05-27T05:00:27;11.40;;;8.30;;
16288;SDS011;26089;43.538;5.250;2023-05-27T05:03:04;11.07;;;7.83;;
16288;SDS011;26089;43.538;5.250;2023-05-27T05:05:33;12.03;;;7.83;;
16288;SDS011;26089;43.538;5.250;2023-05-27T05:08:01;13.27;;;7.40;;
16288;SDS011;26089;43.538;5.250;2023-05-27T05:10:29;14.30;;;8.43;;
16288;SDS011;26089;43.538;5.250;2023-05-27T05:12:56;10.60;;;7.90;;
16288;SDS011;26089;43.538;5.250;2023-05-27T05:15:23;10.83;;;7.40;;
16288;SDS011;26089;43.538;5.250;2023-05-27T05:17:50;13.03;;;7.83;;
16288;SDS011;26089;43.538;5.250;2023-05-27T05:20:17;12.67;;;7.70;;
16288;SDS011;26089;43.538;5.250;2023-05-27T05:22:45;10.30;;;6.90;;
16288;SDS011;26089;43.538;5.250;2023-05-27T05:25:13;12.07;;;7.00;;
16288;SDS011;26089;43.538;5.250;2023-05-27T05:27:41;12.03;;;7.50;;
16288;SDS011;26089;43.538;5.250;2023-05-27T05:30:08;10.80;;;6.87;;
16288;SDS011;26089;43.538;5.250;2023-05-27T05:32:35;12.03;;;7.80;;
16288;SDS011;26089;43.538;5.250;2023-05-27T05:35:03;9.67;;;7.50;;
16288;SDS011;26089;43.538;5.250;2023-05-27T05:37:31;10.23;;;7.57;;
16288;SDS011;26089;43.538;5.250;2023-05-27T05:39:59;8.73;;;7.07;;
16288;SDS011;26089;43.538;5.250;2023-05-27T05:42:26;10.93;;;7.23;;
16288;SDS011;26089;43.538;5.250;2023-05-27T05:44:53;13.10;;;7.87;;
16288;SDS011;26089;43.538;5.250;2023-05-27T05:47:20;10.50;;;7.97;;
16288;SDS011;26089;43.538;5.250;2023-05-27T05:49:47;12.93;;;8.27;;
16288;SDS011;26089;43.538;5.250;2023-05-27T05:52:14;14.17;;;8.17;;
16288;SDS011;26089;43.538;5.250;2023-05-27T05:54:41;10.43;;;7.67;;
16288;SDS011;26089;43.538;5.250;2023-05-27T05:57:09;12.67;;;7.80;;
16288;SDS011;26089;43.538;5.250;2023-05-27T05:59:36;10.33;;;7.47;;
16288;SDS011;26089;43.538;5.250;2023-05-27T06:02:03;10.37;;;7.50;;
16288;SDS011;26089;43.538;5.250;2023-05-27T06:04:30;11.77;;;8.00;;
16288;SDS011;26089;43.538;5.250;2023-05-27T06:06:57;12.43;;;7.07;;
16288;SDS011;26089;43.538;5.250;2023-05-27T06:09:24;11.63;;;7.30;;
16288;SDS011;26089;43.538;5.250;2023-05-27T06:11:51;8.97;;;6.60;;
16288;SDS011;26089;43.538;5.250;2023-05-27T06:14:19;6.70;;;6.00;;
16288;SDS011;26089;43.538;5.250;2023-05-27T06:16:47;10.63;;;7.03;;
16288;SDS011;26089;43.538;5.250;2023-05-27T06:19:14;11.23;;;7.00;;
16288;SDS011;26089;43.538;5.250;2023-05-27T06:21:41;11.57;;;6.87;;
16288;SDS011;26089;43.538;5.250;2023-05-27T06:24:08;8.40;;;6.27;;
16288;SDS011;26089;43.538;5.250;2023-05-27T06:26:35;11.23;;;7.50;;
16288;SDS011;26089;43.538;5.250;2023-05-27T06:29:02;7.13;;;5.90;;
16288;SDS011;26089;43.538;5.250;2023-05-27T06:31:30;8.27;;;5.67;;
16288;SDS011;26089;43.538;5.250;2023-05-27T06:33:58;10.23;;;5.43;;
16288;SDS011;26089;43.538;5.250;2023-05-27T06:36:25;8.73;;;5.63;;
16288;SDS011;26089;43.538;5.250;2023-05-27T06:38:52;6.83;;;5.53;;
16288;SDS011;26089;43.538;5.250;2023-05-27T06:41:20;7.30;;;5.70;;
16288;SDS011;26089;43.538;5.250;2023-05-27T06:43:47;11.60;;;5.57;;
16288;SDS011;26089;43.538;5.250;2023-05-27T06:46:13;10.73;;;6.70;;
16288;SDS011;26089;43.538;5.250;2023-05-27T06:48:42;7.37;;;5.20;;
16288;SDS011;26089;43.538;5.250;2023-05-27T06:51:09;10.90;;;4.80;;
16288;SDS011;26089;43.538;5.250;2023-05-27T06:53:36;9.20;;;5.67;;
16288;SDS011;26089;43.538;5.250;2023-05-27T06:56:03;8.03;;;4.80;;
16288;SDS011;26089;43.538;5.250;2023-05-27T06:58:30;6.13;;;4.47;;
16288;SDS011;26089;43.538;5.250;2023-05-27T07:00:57;8.73;;;4.60;;
16288;SDS011;26089;43.538;5.250;2023-05-27T07:03:24;7.60;;;4.90;;
16288;SDS011;26089;43.538;5.250;2023-05-27T07:05:52;8.43;;;4.70;;
16288;SDS011;26089;43.538;5.250;2023-05-27T07:08:19;7.97;;;4.97;;
16288;SDS011;26089;43.538;5.250;2023-05-27T07:10:46;10.67;;;4.77;;
16288;SDS011;26089;43.538;5.250;2023-05-27T07:13:13;11.57;;;4.90;;
16288;SDS011;26089;43.538;5.250;2023-05-27T07:15:40;9.80;;;5.73;;
16288;SDS011;26089;43.538;5.250;2023-05-27T07:18:08;6.53;;;4.53;;
16288;SDS011;26089;43.538;5.250;2023-05-27T07:20:35;9.73;;;4.87;;
16288;SDS011;26089;43.538;5.250;2023-05-27T07:23:03;6.73;;;4.70;;
16288;SDS011;26089;43.538;5.250;2023-05-27T07:25:30;6.40;;;4.67;;
16288;SDS011;26089;43.538;5.250;2023-05-27T07:27:57;7.90;;;5.23;;
16288;SDS011;26089;43.538;5.250;2023-05-27T07:30:24;6.30;;;5.10;;
16288;SDS011;26089;43.538;5.250;2023-05-27T07:32:51;8.37;;;5.50;;
16288;SDS011;26089;43.538;5.250;2023-05-27T07:35:18;11.13;;;5.70;;
16288;SDS011;26089;43.538;5.250;2023-05-27T07:37:45;5.70;;;5.03;;
16288;SDS011;26089;43.538;5.250;2023-05-27T07:40:13;6.67;;;4.80;;
16288;SDS011;26089;43.538;5.250;2023-05-27T07:42:40;7.10;;;4.97;;
16288;SDS011;26089;43.538;5.250;2023-05-27T07:45:08;6.13;;;4.70;;
16288;SDS011;26089;43.538;5.250;2023-05-27T07:47:35;5.73;;;5.13;;
16288;SDS011;26089;43.538;5.250;2023-05-27T07:50:02;7.70;;;5.00;;
16288;SDS011;26089;43.538;5.250;2023-05-27T07:52:29;8.30;;;5.27;;
16288;SDS011;26089;43.538;5.250;2023-05-27T07:54:56;9.37;;;5.40;;
16288;SDS011;26089;43.538;5.250;2023-05-27T07:57:25;8.18;;;5.15;;
16288;SDS011;26089;43.538;5.250;2023-05-27T07:59:52;10.20;;;5.60;;
16288;SDS011;26089;43.538;5.250;2023-05-27T08:02:19;5.97;;;4.90;;
16288;SDS011;26089;43.538;5.250;2023-05-27T08:04:47;5.93;;;4.85;;
16288;SDS011;26089;43.538;5.250;2023-05-27T08:07:14;7.00;;;4.93;;
16288;SDS011;26089;43.538;5.250;2023-05-27T08:09:41;5.63;;;5.00;;
16288;SDS011;26089;43.538;5.250;2023-05-27T08:12:08;8.00;;;5.37;;
16288;SDS011;26089;43.538;5.250;2023-05-27T08:14:38;9.15;;;5.60;;
16288;SDS011;26089;43.538;5.250;2023-05-27T08:17:05;11.73;;;5.32;;
16288;SDS011;26089;43.538;5.250;2023-05-27T08:19:32;7.20;;;5.30;;
16288;SDS011;26089;43.538;5.250;2023-05-27T08:21:59;13.98;;;5.45;;
16288;SDS011;26089;43.538;5.250;2023-05-27T08:24:27;9.45;;;4.70;;
16288;SDS011;26089;43.538;5.250;2023-05-27T08:26:55;7.80;;;4.97;;
16288;SDS011;26089;43.538;5.250;2023-05-27T08:29:22;7.80;;;5.38;;
16288;SDS011;26089;43.538;5.250;2023-05-27T08:31:54;10.05;;;5.78;;
16288;SDS011;26089;43.538;5.250;2023-05-27T08:34:20;7.35;;;4.97;;
16288;SDS011;26089;43.538;5.250;2023-05-27T08:36:48;8.82;;;5.40;;
16288;SDS011;26089;43.538;5.250;2023-05-27T08:39:15;8.65;;;5.38;;
16288;SDS011;26089;43.538;5.250;2023-05-27T08:41:42;10.48;;;5.70;;
16288;SDS011;26089;43.538;5.250;2023-05-27T08:44:10;8.38;;;5.35;;
16288;SDS011;26089;43.538;5.250;2023-05-27T08:46:37;8.73;;;5.53;;
16288;SDS011;26089;43.538;5.250;2023-05-27T08:49:06;7.75;;;5.68;;
16288;SDS011;26089;43.538;5.250;2023-05-27T08:51:34;11.27;;;5.63;;
16288;SDS011;26089;43.538;5.250;2023-05-27T08:54:05;8.80;;;6.00;;
16288;SDS011;26089;43.538;5.250;2023-05-27T08:56:33;9.25;;;5.38;;
16288;SDS011;26089;43.538;5.250;2023-05-27T08:59:02;8.90;;;6.68;;
16288;SDS011;26089;43.538;5.250;2023-05-27T09:01:29;8.30;;;6.00;;
16288;SDS011;26089;43.538;5.250;2023-05-27T09:03:58;10.13;;;6.70;;
16288;SDS011;26089;43.538;5.250;2023-05-27T09:06:27;7.18;;;6.43;;
16288;SDS011;26089;43.538;5.250;2023-05-27T09:08:54;9.73;;;6.18;;
16288;SDS011;26089;43.538;5.250;2023-05-27T09:11:24;13.38;;;6.90;;
16288;SDS011;26089;43.538;5.250;2023-05-27T09:13:53;8.73;;;7.40;;
16288;SDS011;26089;43.538;5.250;2023-05-27T09:16:21;7.45;;;6.32;;
16288;SDS011;26089;43.538;5.250;2023-05-27T09:18:48;8.27;;;6.90;;
16288;SDS011;26089;43.538;5.250;2023-05-27T09:21:15;9.07;;;6.63;;
16288;SDS011;26089;43.538;5.250;2023-05-27T09:23:44;8.80;;;6.75;;
16288;SDS011;26089;43.538;5.250;2023-05-27T09:26:12;11.68;;;6.75;;
16288;SDS011;26089;43.538;5.250;2023-05-27T09:28:40;9.60;;;6.60;;
16288;SDS011;26089;43.538;5.250;2023-05-27T09:31:07;9.52;;;6.43;;
16288;SDS011;26089;43.538;5.250;2023-05-27T09:33:35;10.07;;;6.47;;
16288;SDS011;26089;43.538;5.250;2023-05-27T09:36:03;8.00;;;6.40;;
16288;SDS011;26089;43.538;5.250;2023-05-27T09:38:31;13.27;;;6.40;;
16288;SDS011;26089;43.538;5.250;2023-05-27T09:41:00;7.75;;;6.90;;
16288;SDS011;26089;43.538;5.250;2023-05-27T09:43:27;11.13;;;5.90;;
16288;SDS011;26089;43.538;5.250;2023-05-27T09:45:56;6.60;;;5.28;;
16288;SDS011;26089;43.538;5.250;2023-05-27T09:48:26;8.07;;;5.55;;
16288;SDS011;26089;43.538;5.250;2023-05-27T09:50:56;11.05;;;6.63;;
16288;SDS011;26089;43.538;5.250;2023-05-27T09:53:25;9.88;;;5.70;;
16288;SDS011;26089;43.538;5.250;2023-05-27T09:55:53;9.85;;;5.60;;
16288;SDS011;26089;43.538;5.250;2023-05-27T09:58:22;8.40;;;6.40;;
16288;SDS011;26089;43.538;5.250;2023-05-27T10:00:51;7.88;;;5.65;;
16288;SDS011;26089;43.538;5.250;2023-05-27T10:03:20;10.60;;;6.55;;
16288;SDS011;26089;43.538;5.250;2023-05-27T10:05:49;10.85;;;6.88;;
16288;SDS011;26089;43.538;5.250;2023-05-27T10:08:17;10.30;;;6.57;;
16288;SDS011;26089;43.538;5.250;2023-05-27T10:10:44;10.77;;;7.28;;
16288;SDS011;26089;43.538;5.250;2023-05-27T10:13:12;8.70;;;7.30;;
16288;SDS011;26089;43.538;5.250;2023-05-27T10:15:45;14.82;;;9.43;;
16288;SDS011;26089;43.538;5.250;2023-05-27T10:18:21;15.50;;;10.88;;
16288;SDS011;26089;43.538;5.250;2023-05-27T10:20:49;11.57;;;8.70;;
16288;SDS011;26089;43.538;5.250;2023-05-27T10:23:19;11.32;;;7.07;;
16288;SDS011;26089;43.538;5.250;2023-05-27T10:25:51;11.13;;;6.80;;
16288;SDS011;26089;43.538;5.250;2023-05-27T10:28:24;7.47;;;6.28;;
16288;SDS011;26089;43.538;5.250;2023-05-27T10:31:02;8.38;;;5.60;;
16288;SDS011;26089;43.538;5.250;2023-05-27T10:33:30;8.82;;;5.95;;
16288;SDS011;26089;43.538;5.250;2023-05-27T10:36:03;15.43;;;9.60;;
16288;SDS011;26089;43.538;5.250;2023-05-27T10:38:31;7.30;;;6.55;;
16288;SDS011;26089;43.538;5.250;2023-05-27T10:40:58;15.00;;;10.20;;
16288;SDS011;26089;43.538;5.250;2023-05-27T10:43:27;9.77;;;7.50;;
16288;SDS011;26089;43.538;5.250;2023-05-27T10:46:02;10.57;;;7.57;;
16288;SDS011;26089;43.538;5.250;2023-05-27T10:48:30;7.28;;;6.60;;
16288;SDS011;26089;43.538;5.250;2023-05-27T10:50:59;6.63;;;6.03;;
16288;SDS011;26089;43.538;5.250;2023-05-27T10:53:26;9.43;;;5.50;;
16288;SDS011;26089;43.538;5.250;2023-05-27T10:55:56;7.05;;;6.22;;
16288;SDS011;26089;43.538;5.250;2023-05-27T10:58:24;9.48;;;6.05;;
16288;SDS011;26089;43.538;5.250;2023-05-27T11:00:52;8.45;;;6.03;;
16288;SDS011;26089;43.538;5.250;2023-05-27T11:03:22;7.97;;;6.25;;
16288;SDS011;26089;43.538;5.250;2023-05-27T11:05:57;6.05;;;5.32;;
16288;SDS011;26089;43.538;5.250;2023-05-27T11:08:25;7.97;;;5.80;;
16288;SDS011;26089;43.538;5.250;2023-05-27T11:10:57;8.10;;;6.28;;
16288;SDS011;26089;43.538;5.250;2023-05-27T11:13:29;6.63;;;5.75;;
16288;SDS011;26089;43.538;5.250;2023-05-27T11:15:56;6.30;;;5.47;;
16288;SDS011;26089;43.538;5.250;2023-05-27T11:18:33;9.45;;;5.22;;
16288;SDS011;26089;43.538;5.250;2023-05-27T11:21:03;6.80;;;5.50;;
16288;SDS011;26089;43.538;5.250;2023-05-27T11:23:34;7.20;;;5.40;;
16288;SDS011;26089;43.538;5.250;2023-05-27T11:26:02;6.70;;;5.22;;
16288;SDS011;26089;43.538;5.250;2023-05-27T11:28:30;7.30;;;5.50;;
16288;SDS011;26089;43.538;5.250;2023-05-27T11:30:58;8.10;;;5.10;;
16288;SDS011;26089;43.538;5.250;2023-05-27T11:33:33;9.38;;;5.82;;
16288;SDS011;26089;43.538;5.250;2023-05-27T11:36:04;6.90;;;4.85;;
16288;SDS011;26089;43.538;5.250;2023-05-27T11:38:38;11.43;;;5.00;;
16288;SDS011;26089;43.538;5.250;2023-05-27T11:41:12;7.70;;;5.13;;
16288;SDS011;26089;43.538;5.250;2023-05-27T11:43:46;6.00;;;4.97;;
16288;SDS011;26089;43.538;5.250;2023-05-27T11:46:16;9.05;;;4.97;;
16288;SDS011;26089;43.538;5.250;2023-05-27T11:48:45;6.97;;;4.97;;
16288;SDS011;26089;43.538;5.250;2023-05-27T11:51:12;7.50;;;4.70;;
16288;SDS011;26089;43.538;5.250;2023-05-27T11:53:40;10.45;;;5.95;;
16288;SDS011;26089;43.538;5.250;2023-05-27T11:56:10;7.07;;;5.40;;
16288;SDS011;26089;43.538;5.250;2023-05-27T11:58:36;7.18;;;5.80;;
16288;SDS011;26089;43.538;5.250;2023-05-27T12:01:03;6.72;;;5.50;;
16288;SDS011;26089;43.538;5.250;2023-05-27T12:03:33;8.45;;;5.68;;
16288;SDS011;26089;43.538;5.250;2023-05-27T12:06:02;7.45;;;5.22;;
16288;SDS011;26089;43.538;5.250;2023-05-27T12:08:29;8.27;;;5.20;;
16288;SDS011;26089;43.538;5.250;2023-05-27T12:10:56;6.38;;;5.07;;
16288;SDS011;26089;43.538;5.250;2023-05-27T12:13:23;6.47;;;5.00;;
16288;SDS011;26089;43.538;5.250;2023-05-27T12:15:51;8.57;;;5.13;;
16288;SDS011;26089;43.538;5.250;2023-05-27T12:18:18;9.98;;;5.10;;
16288;SDS011;26089;43.538;5.250;2023-05-27T12:20:45;5.63;;;4.97;;
16288;SDS011;26089;43.538;5.250;2023-05-27T12:23:13;6.80;;;5.05;;
16288;SDS011;26089;43.538;5.250;2023-05-27T12:25:40;6.25;;;4.72;;
16288;SDS011;26089;43.538;5.250;2023-05-27T12:28:07;6.78;;;5.22;;
16288;SDS011;26089;43.538;5.250;2023-05-27T12:30:35;5.47;;;4.97;;
16288;SDS011;26089;43.538;5.250;2023-05-27T12:33:03;6.05;;;5.10;;
16288;SDS011;26089;43.538;5.250;2023-05-27T12:35:31;6.22;;;5.13;;
16288;SDS011;26089;43.538;5.250;2023-05-27T12:37:58;6.88;;;5.50;;
16288;SDS011;26089;43.538;5.250;2023-05-27T12:40:27;7.45;;;5.40;;
16288;SDS011;26089;43.538;5.250;2023-05-27T12:42:54;7.90;;;5.10;;
16288;SDS011;26089;43.538;5.250;2023-05-27T12:45:21;6.88;;;4.90;;
16288;SDS011;26089;43.538;5.250;2023-05-27T12:47:50;5.13;;;4.40;;
16288;SDS011;26089;43.538;5.250;2023-05-27T12:50:18;7.45;;;4.78;;
16288;SDS011;26089;43.538;5.250;2023-05-27T12:52:44;7.15;;;5.03;;
16288;SDS011;26089;43.538;5.250;2023-05-27T12:55:13;5.38;;;4.68;;
16288;SDS011;26089;43.538;5.250;2023-05-27T12:57:43;8.13;;;5.55;;
16288;SDS011;26089;43.538;5.250;2023-05-27T13:00:11;6.22;;;5.00;;
16288;SDS011;26089;43.538;5.250;2023-05-27T13:02:39;7.55;;;5.28;;
16288;SDS011;26089;43.538;5.250;2023-05-27T13:05:06;6.82;;;5.45;;
16288;SDS011;26089;43.538;5.250;2023-05-27T13:07:34;7.00;;;5.40;;
16288;SDS011;26089;43.538;5.250;2023-05-27T13:10:02;6.93;;;5.38;;
16288;SDS011;26089;43.538;5.250;2023-05-27T13:12:31;6.57;;;5.10;;
16288;SDS011;26089;43.538;5.250;2023-05-27T13:15:01;8.73;;;5.68;;
16288;SDS011;26089;43.538;5.250;2023-05-27T13:17:29;7.95;;;5.45;;
16288;SDS011;26089;43.538;5.250;2023-05-27T13:19:56;7.57;;;5.88;;
16288;SDS011;26089;43.538;5.250;2023-05-27T13:22:23;6.85;;;6.15;;
16288;SDS011;26089;43.538;5.250;2023-05-27T13:24:51;9.35;;;5.90;;
16288;SDS011;26089;43.538;5.250;2023-05-27T13:27:18;7.57;;;5.95;;
16288;SDS011;26089;43.538;5.250;2023-05-27T13:29:44;11.13;;;5.57;;
16288;SDS011;26089;43.538;5.250;2023-05-27T13:32:13;7.90;;;6.05;;
16288;SDS011;26089;43.538;5.250;2023-05-27T13:34:40;6.45;;;5.38;;
16288;SDS011;26089;43.538;5.250;2023-05-27T13:37:07;6.30;;;5.75;;
16288;SDS011;26089;43.538;5.250;2023-05-27T13:39:34;9.70;;;5.63;;
16288;SDS011;26089;43.538;5.250;2023-05-27T13:42:01;9.05;;;5.45;;
16288;SDS011;26089;43.538;5.250;2023-05-27T13:44:28;6.63;;;5.55;;
16288;SDS011;26089;43.538;5.250;2023-05-27T13:46:55;8.80;;;5.05;;
16288;SDS011;26089;43.538;5.250;2023-05-27T13:49:23;7.32;;;5.40;;
16288;SDS011;26089;43.538;5.250;2023-05-27T13:51:50;6.43;;;5.47;;
16288;SDS011;26089;43.538;5.250;2023-05-27T13:54:17;6.22;;;5.10;;
16288;SDS011;26089;43.538;5.250;2023-05-27T13:56:44;8.27;;;5.38;;
16288;SDS011;26089;43.538;5.250;2023-05-27T13:59:11;6.38;;;5.18;;
16288;SDS011;26089;43.538;5.250;2023-05-27T14:01:39;8.93;;;5.63;;
16288;SDS011;26089;43.538;5.250;2023-05-27T14:04:06;7.82;;;5.95;;
16288;SDS011;26089;43.538;5.250;2023-05-27T14:06:34;7.93;;;5.50;;
16288;SDS011;26089;43.538;5.250;2023-05-27T14:09:02;7.40;;;5.95;;
16288;SDS011;26089;43.538;5.250;2023-05-27T14:11:30;6.95;;;4.75;;
16288;SDS011;26089;43.538;5.250;2023-05-27T14:13:57;7.47;;;5.80;;
16288;SDS011;26089;43.538;5.250;2023-05-27T14:16:24;8.73;;;5.03;;
16288;SDS011;26089;43.538;5.250;2023-05-27T14:18:51;6.05;;;5.45;;
16288;SDS011;26089;43.538;5.250;2023-05-27T14:21:18;5.93;;;4.93;;
16288;SDS011;26089;43.538;5.250;2023-05-27T14:23:46;8.77;;;4.88;;
16288;SDS011;26089;43.538;5.250;2023-05-27T14:26:13;6.28;;;4.50;;
16288;SDS011;26089;43.538;5.250;2023-05-27T14:28:41;8.07;;;4.80;;
16288;SDS011;26089;43.538;5.250;2023-05-27T14:31:08;8.00;;;4.88;;
16288;SDS011;26089;43.538;5.250;2023-05-27T14:33:35;6.93;;;5.18;;
16288;SDS011;26089;43.538;5.250;2023-05-27T14:36:02;6.15;;;5.20;;
16288;SDS011;26089;43.538;5.250;2023-05-27T14:38:30;7.60;;;5.70;;
16288;SDS011;26089;43.538;5.250;2023-05-27T14:40:58;6.10;;;4.97;;
16288;SDS011;26089;43.538;5.250;2023-05-27T14:43:25;7.45;;;5.53;;
16288;SDS011;26089;43.538;5.250;2023-05-27T14:45:52;6.05;;;4.80;;